Time;durP1;ratioP1;P1;durP2;ratioP2;P2;SDS_P1;SDS_P2;PMS_P1;PMS_P2;Temp;Humidity;BMP_temperature;BMP_pressure;BME280_temperature;BME280_humidity;BME280_pressure;Samples;Min_cycle;Max_cycle;Signal;HPM_P1;HPM_P2
2021/06/11 00:01:17;;;;;;;11.45;9.80;;;14.00;98.30;;;;;;5072557;28;20025;-80
2021/06/11 00:03:43;;;;;;;12.80;10.18;;;14.00;98.20;;;;;;5073608;28;20051;-78
2021/06/11 00:06:09;;;;;;;14.93;11.38;;;13.90;98.30;;;;;;5074005;28;20025;-80
2021/06/11 00:08:35;;;;;;;12.18;10.13;;;14.00;98.40;;;;;;5073938;28;20036;-80
2021/06/11 00:11:01;;;;;;;13.15;9.82;;;13.90;98.30;;;;;;5074519;28;20341;-77
2021/06/11 00:13:27;;;;;;;11.90;10.63;;;13.90;98.40;;;;;;5078791;28;20038;-80
2021/06/11 00:15:52;;;;;;;12.65;10.07;;;13.90;98.50;;;;;;5046028;28;20109;-81
2021/06/11 00:18:18;;;;;;;14.55;10.90;;;14.00;98.40;;;;;;5064349;28;20033;-80
2021/06/11 00:20:44;;;;;;;13.90;10.88;;;14.00;98.40;;;;;;5062991;28;20028;-78
2021/06/11 00:23:10;;;;;;;12.27;10.05;;;14.00;98.40;;;;;;5073946;28;20103;-79
2021/06/11 00:25:36;;;;;;;13.25;10.07;;;14.10;98.30;;;;;;5048565;28;20112;-81
2021/06/11 00:28:02;;;;;;;12.57;10.93;;;14.10;98.20;;;;;;5063131;28;20028;-80
2021/06/11 00:30:29;;;;;;;11.68;9.98;;;14.10;98.10;;;;;;5073246;28;20489;-80
2021/06/11 00:32:56;;;;;;;;;;;14.10;98.10;;;;;;5064901;28;20382;-81
2021/06/11 00:35:22;;;;;;;16.85;10.60;;;14.00;98.00;;;;;;5072049;28;19904;-82
2021/06/11 00:37:47;;;;;;;12.93;9.45;;;14.00;98.50;;;;;;5078350;28;20029;-80
2021/06/11 00:40:14;;;;;;;11.55;10.00;;;14.10;98.20;;;;;;5063592;28;20055;-80
2021/06/11 00:42:40;;;;;;;11.70;9.57;;;14.10;98.10;;;;;;5068226;28;20401;-84
2021/06/11 00:45:09;;;;;;;13.55;9.65;;;14.10;98.00;;;;;;5046075;28;20029;-83
2021/06/11 00:47:35;;;;;;;13.57;10.43;;;14.10;98.10;;;;;;5055511;28;20117;-81
2021/06/11 00:50:02;;;;;;;12.77;9.80;;;14.10;98.00;;;;;;5045699;28;20557;-80
2021/06/11 00:52:31;;;;;;;9.65;8.60;;;14.10;97.90;;;;;;5067804;28;20017;-81
2021/06/11 00:54:58;;;;;;;10.38;9.38;;;14.10;97.70;;;;;;5045873;28;20029;-80
2021/06/11 00:57:25;;;;;;;12.68;9.77;;;14.10;97.60;;;;;;5073178;28;20033;-81
2021/06/11 00:59:51;;;;;;;11.90;10.23;;;14.00;97.60;;;;;;5071725;28;20028;-82
2021/06/11 01:02:17;;;;;;;10.40;9.30;;;13.90;97.80;;;;;;5072723;28;20028;-79
2021/06/11 01:04:43;;;;;;;12.10;8.90;;;13.90;97.80;;;;;;5073029;28;20083;-82
2021/06/11 01:07:09;;;;;;;15.18;9.32;;;13.90;97.70;;;;;;5072840;28;20025;-83
2021/06/11 01:09:38;;;;;;;11.07;9.77;;;13.80;97.70;;;;;;5073341;28;20530;-81
2021/06/11 01:12:10;;;;;;;9.55;8.50;;;13.80;97.80;;;;;;5071294;28;20027;-80
2021/06/11 01:14:37;;;;;;;9.68;8.70;;;13.80;97.80;;;;;;5082903;28;20034;-82
2021/06/11 01:17:04;;;;;;;13.93;9.63;;;13.80;97.80;;;;;;5076715;28;20021;-80
2021/06/11 01:19:37;;;;;;;9.73;8.10;;;13.80;97.80;;;;;;5072509;28;20055;-80
2021/06/11 01:22:10;;;;;;;11.48;9.45;;;13.80;97.70;;;;;;5084008;28;20016;-80
2021/06/11 01:24:59;;;;;;;12.43;9.35;;;13.80;97.80;;;;;;5070685;28;20032;-79
2021/06/11 01:27:28;;;;;;;12.15;9.27;;;13.80;97.70;;;;;;5058616;28;20032;-80
2021/06/11 01:29:57;;;;;;;12.95;9.43;;;13.80;97.70;;;;;;5069591;28;20545;-81
2021/06/11 01:32:24;;;;;;;10.35;9.25;;;13.90;97.80;;;;;;5072851;28;20028;-82
2021/06/11 01:34:52;;;;;;;16.27;9.45;;;13.90;97.70;;;;;;5072438;28;20100;-83
2021/06/11 01:37:32;;;;;;;10.55;8.75;;;13.90;97.70;;;;;;5072721;28;20037;-83
2021/06/11 01:40:02;;;;;;;13.23;7.93;;;13.90;97.40;;;;;;5072524;28;20063;-82
2021/06/11 01:42:29;;;;;;;11.82;8.85;;;14.00;97.40;;;;;;5073380;28;20540;-80
2021/06/11 01:44:56;;;;;;;11.73;8.70;;;13.90;97.30;;;;;;5076400;28;20017;-82
2021/06/11 01:47:24;;;;;;;10.43;8.65;;;13.90;97.30;;;;;;5076314;28;20465;-82
2021/06/11 01:49:51;;;;;;;11.27;8.18;;;14.00;97.10;;;;;;5076079;28;20021;-81
2021/06/11 01:52:18;;;;;;;11.13;8.00;;;14.00;97.00;;;;;;5076286;28;20111;-79
2021/06/11 01:54:46;;;;;;;9.18;7.45;;;14.00;97.00;;;;;;5058549;28;20013;-83
2021/06/11 01:57:13;;;;;;;8.70;7.30;;;14.00;96.70;;;;;;5057362;28;20033;-84
2021/06/11 01:59:41;;;;;;;9.75;7.63;;;14.00;96.70;;;;;;5059536;28;20017;-83
2021/06/11 02:02:08;;;;;;;9.80;8.80;;;14.10;96.60;;;;;;5067149;28;20032;-83
2021/06/11 02:04:35;;;;;;;11.25;8.55;;;14.10;96.70;;;;;;5077094;28;20029;-83
2021/06/11 02:07:07;;;;;;;9.23;8.32;;;14.20;96.50;;;;;;5045453;28;20070;-82
2021/06/11 02:09:35;;;;;;;11.15;9.07;;;14.20;96.40;;;;;;5057830;28;20068;-81
2021/06/11 02:12:01;;;;;;;;;;;14.20;96.40;;;;;;5077639;28;20036;-81
2021/06/11 02:14:28;;;;;;;9.27;7.90;;;14.30;96.30;;;;;;5065092;28;19959;-83
2021/06/11 02:16:56;;;;;;;11.40;8.07;;;14.20;96.10;;;;;;5057788;28;20025;-81
2021/06/11 02:19:23;;;;;;;9.82;8.15;;;14.20;96.10;;;;;;5058088;28;20553;-82
2021/06/11 02:21:49;;;;;;;9.52;8.32;;;14.20;96.00;;;;;;5066090;28;20092;-81
2021/06/11 02:24:15;;;;;;;8.43;7.57;;;14.20;96.00;;;;;;5066923;28;20112;-81
2021/06/11 02:26:42;;;;;;;8.95;8.00;;;14.20;95.80;;;;;;5062116;28;20550;-81
2021/06/11 02:29:08;;;;;;;10.07;8.20;;;14.20;96.00;;;;;;5059562;28;20116;-85
2021/06/11 02:31:34;;;;;;;9.57;8.13;;;14.20;96.00;;;;;;5074072;28;20023;-88
2021/06/11 02:34:00;;;;;;;10.00;8.25;;;14.20;96.00;;;;;;5065250;28;20025;-82
2021/06/11 02:36:26;;;;;;;9.07;7.75;;;14.20;96.00;;;;;;5067505;28;20025;-83
2021/06/11 02:38:52;;;;;;;14.88;8.23;;;14.30;96.00;;;;;;5074843;28;20080;-82
2021/06/11 02:41:22;;;;;;;9.02;6.95;;;14.30;95.70;;;;;;5066738;28;20048;-82
2021/06/11 02:43:51;;;;;;;10.88;8.07;;;14.30;95.80;;;;;;5065793;28;20401;-84
2021/06/11 02:46:29;;;;;;;10.30;9.23;;;14.30;95.80;;;;;;5039164;28;20036;-82
2021/06/11 02:49:04;;;;;;;9.80;7.88;;;14.40;95.80;;;;;;5058481;28;20381;-82
2021/06/11 02:51:56;;;;;;;9.75;7.43;;;14.40;95.50;;;;;;5057446;28;20028;-84
2021/06/11 02:54:37;;;;;;;12.43;8.63;;;14.40;95.30;;;;;;5061639;28;20033;-83
2021/06/11 02:57:07;;;;;;;12.57;8.65;;;14.40;95.50;;;;;;5057741;28;20367;-84
2021/06/11 02:59:39;;;;;;;7.88;7.07;;;14.40;95.30;;;;;;5069650;28;20496;-84
2021/06/11 03:02:10;;;;;;;8.85;7.03;;;14.40;95.40;;;;;;5058521;28;20031;-87
2021/06/11 03:04:40;;;;;;;12.20;7.78;;;14.30;95.50;;;;;;5060791;28;20023;-77
2021/06/11 03:07:07;;;;;;;10.70;7.65;;;14.30;95.60;;;;;;5067266;28;20432;-80
2021/06/11 03:09:36;;;;;;;14.50;8.00;;;14.30;95.60;;;;;;5072379;28;20013;-81
2021/06/11 03:12:04;;;;;;;10.00;7.72;;;14.40;95.60;;;;;;5075246;28;20020;-81
2021/06/11 03:14:33;;;;;;;9.88;7.93;;;14.30;95.50;;;;;;5074857;28;20021;-80
2021/06/11 03:17:02;;;;;;;13.88;8.13;;;14.30;95.50;;;;;;5079217;28;20017;-81
2021/06/11 03:19:33;;;;;;;13.52;8.40;;;14.30;95.50;;;;;;5077583;28;20078;-83
2021/06/11 03:22:04;;;;;;;11.45;8.10;;;14.30;95.60;;;;;;5071900;28;20060;-87
2021/06/11 03:24:41;;;;;;;10.38;8.88;;;14.40;95.70;;;;;;5079865;28;20386;-86
2021/06/11 03:27:13;;;;;;;13.05;8.98;;;14.40;95.70;;;;;;5084188;28;20580;-85
2021/06/11 03:29:47;;;;;;;9.80;8.82;;;14.40;95.60;;;;;;5074437;28;20770;-81
2021/06/11 03:32:19;;;;;;;12.02;8.88;;;14.30;95.70;;;;;;5050225;28;20025;-85
2021/06/11 03:34:47;;;;;;;10.32;8.38;;;14.30;96.30;;;;;;5069130;28;20314;-83
2021/06/11 03:37:17;;;;;;;11.52;9.18;;;14.20;96.00;;;;;;5065905;28;20029;-84
2021/06/11 03:39:59;;;;;;;11.90;9.95;;;14.10;96.20;;;;;;5075456;28;20411;-83
2021/06/11 03:42:26;;;;;;;13.32;11.13;;;14.00;96.80;;;;;;5074765;28;20028;-83
2021/06/11 03:44:54;;;;;;;12.70;10.60;;;13.90;97.30;;;;;;5074919;28;20368;-84
2021/06/11 03:47:23;;;;;;;13.02;10.38;;;13.80;97.60;;;;;;5060865;28;20025;-85
2021/06/11 03:49:53;;;;;;;14.20;11.00;;;13.80;97.90;;;;;;5076783;28;20420;-84
2021/06/11 03:52:28;;;;;;;12.80;11.02;;;13.70;98.00;;;;;;5079288;28;20550;-83
2021/06/11 03:55:01;;;;;;;18.35;12.30;;;13.70;98.30;;;;;;5076779;28;20044;-83
2021/06/11 03:57:30;;;;;;;15.20;11.65;;;13.70;98.40;;;;;;5075106;28;20028;-83
2021/06/11 03:59:59;;;;;;;18.80;11.98;;;13.70;98.60;;;;;;5056933;28;20029;-85
2021/06/11 04:02:25;;;;;;;11.50;10.40;;;13.70;98.60;;;;;;5074539;28;20032;-82
2021/06/11 04:04:51;;;;;;;19.17;11.38;;;13.70;98.60;;;;;;5056109;28;20036;-83
2021/06/11 04:07:21;;;;;;;13.98;12.20;;;13.70;98.80;;;;;;5073231;28;20024;-84
2021/06/11 04:10:03;;;;;;;12.88;11.57;;;13.70;98.90;;;;;;5074393;28;20088;-83
2021/06/11 04:12:40;;;;;;;16.80;13.27;;;13.60;98.90;;;;;;5074411;28;20046;-84
2021/06/11 04:15:06;;;;;;;15.43;13.82;;;13.60;99.10;;;;;;5060731;28;20046;-85
2021/06/11 04:17:41;;;;;;;14.55;12.45;;;13.60;99.40;;;;;;5074739;28;20078;-86
2021/06/11 04:20:12;;;;;;;13.38;11.95;;;13.60;99.70;;;;;;5078351;28;20023;-84
2021/06/11 04:22:44;;;;;;;17.95;13.05;;;13.70;99.80;;;;;;5081780;28;20121;-86
2021/06/11 04:25:13;;;;;;;47.30;35.53;;;13.70;99.90;;;;;;5078761;28;20076;-83
2021/06/11 04:27:42;;;;;;;17.33;14.57;;;13.80;99.90;;;;;;5078054;28;20051;-86
2021/06/11 04:30:09;;;;;;;14.88;13.40;;;13.90;99.90;;;;;;5074858;28;20082;-86
2021/06/11 04:32:36;;;;;;;15.00;13.48;;;13.90;99.80;;;;;;5074631;28;20386;-86
2021/06/11 04:35:02;;;;;;;15.10;13.52;;;14.00;99.60;;;;;;5056197;28;20037;-85
2021/06/11 04:37:28;;;;;;;17.85;12.25;;;14.00;99.60;;;;;;5074255;28;20016;-85
2021/06/11 04:39:54;;;;;;;13.18;11.77;;;14.00;99.70;;;;;;5074058;28;20052;-85
2021/06/11 04:42:20;;;;;;;14.45;12.95;;;14.00;99.80;;;;;;5075116;28;20032;-86
2021/06/11 04:44:46;;;;;;;14.52;13.02;;;14.00;99.80;;;;;;5076304;28;20403;-85
2021/06/11 04:47:13;;;;;;;15.02;13.15;;;14.00;99.60;;;;;;5074577;28;20046;-85
2021/06/11 04:49:38;;;;;;;13.40;12.10;;;14.00;99.80;;;;;;5073815;28;20016;-85
2021/06/11 04:52:05;;;;;;;20.25;15.02;;;14.00;99.80;;;;;;5073218;28;20024;-85
2021/06/11 04:54:31;;;;;;;16.63;13.35;;;14.00;99.90;;;;;;5055096;28;20441;-85
2021/06/11 04:56:59;;;;;;;14.25;12.25;;;14.00;99.90;;;;;;5073563;28;20071;-86
2021/06/11 04:59:25;;;;;;;16.33;12.93;;;13.90;99.90;;;;;;5074692;28;20082;-83
2021/06/11 05:01:51;;;;;;;15.65;14.02;;;13.90;99.90;;;;;;5075379;28;20476;-84
2021/06/11 05:04:17;;;;;;;13.93;12.55;;;13.90;99.90;;;;;;5059836;28;20033;-84
2021/06/11 05:06:43;;;;;;;13.35;12.02;;;13.90;99.90;;;;;;5059316;28;20017;-85
2021/06/11 05:09:08;;;;;;;14.85;13.27;;;14.00;99.90;;;;;;5073468;28;20381;-83
2021/06/11 05:11:34;;;;;;;15.48;13.10;;;14.10;99.90;;;;;;5071531;28;20040;-85
2021/06/11 05:14:00;;;;;;;14.80;12.90;;;14.10;99.90;;;;;;5044915;28;20127;-84
2021/06/11 05:16:27;;;;;;;13.52;12.13;;;14.10;99.90;;;;;;5052651;28;20024;-82
2021/06/11 05:18:53;;;;;;;13.38;12.07;;;14.10;99.90;;;;;;5078141;28;20017;-85
2021/06/11 05:21:19;;;;;;;13.20;12.00;;;14.10;99.90;;;;;;5087824;28;20039;-83
2021/06/11 05:23:45;;;;;;;19.75;11.93;;;14.10;99.90;;;;;;5094209;28;20090;-85
2021/06/11 05:26:10;;;;;;;15.20;12.90;;;14.10;99.90;;;;;;5078007;28;20107;-84
2021/06/11 05:28:36;;;;;;;13.43;12.13;;;14.10;99.90;;;;;;5080138;28;20096;-82
2021/06/11 05:31:03;;;;;;;14.38;12.30;;;14.20;99.90;;;;;;5074750;28;20024;-83
2021/06/11 05:33:28;;;;;;;15.30;13.48;;;14.20;99.90;;;;;;5073765;28;20016;-86
2021/06/11 05:39:14;;;;;;;12.88;11.57;;;14.30;99.90;;;;;;5026458;28;20061;-84
2021/06/11 05:41:40;;;;;;;15.70;12.95;;;14.20;99.90;;;;;;5035064;28;20048;-86
2021/06/11 05:44:06;;;;;;;13.93;12.52;;;14.10;99.90;;;;;;5052377;28;20468;-83
2021/06/11 05:46:33;;;;;;;14.35;12.93;;;14.10;99.90;;;;;;5034470;28;20029;-82
2021/06/11 05:49:00;;;;;;;16.60;13.23;;;14.00;99.90;;;;;;5034644;28;20024;-84
2021/06/11 05:51:26;;;;;;;16.60;14.88;;;14.00;99.90;;;;;;5052989;28;20040;-83
2021/06/11 05:53:52;;;;;;;16.63;13.88;;;14.10;99.90;;;;;;5053548;28;20025;-85
2021/06/11 05:56:18;;;;;;;15.55;13.90;;;14.20;99.90;;;;;;5052713;28;20481;-83
2021/06/11 05:58:45;;;;;;;15.40;13.80;;;14.20;99.90;;;;;;5052662;28;20467;-84
2021/06/11 06:01:11;;;;;;;17.35;14.05;;;14.20;99.90;;;;;;5051972;28;20072;-84
2021/06/11 06:03:37;;;;;;;15.65;14.05;;;14.20;99.90;;;;;;5034644;28;20069;-85
2021/06/11 06:06:03;;;;;;;17.17;13.90;;;14.20;99.90;;;;;;5052046;28;20036;-86
2021/06/11 06:08:29;;;;;;;14.70;12.98;;;14.20;99.90;;;;;;5052330;28;20029;-84
2021/06/11 06:10:55;;;;;;;16.58;14.82;;;14.10;99.90;;;;;;5052549;28;20021;-84
2021/06/11 06:13:20;;;;;;;14.77;13.18;;;14.10;99.90;;;;;;5058589;28;20024;-83
2021/06/11 06:15:47;;;;;;;15.75;14.00;;;14.00;99.90;;;;;;5060508;28;20021;-84
2021/06/11 06:18:13;;;;;;;13.05;11.85;;;14.10;99.90;;;;;;5051789;28;20025;-84
2021/06/11 06:20:40;;;;;;;14.13;12.77;;;14.00;99.90;;;;;;5052151;28;20078;-81
2021/06/11 06:23:06;;;;;;;14.82;12.95;;;14.10;99.90;;;;;;5051947;28;20443;-85
2021/06/11 06:25:32;;;;;;;17.85;16.10;;;14.10;99.90;;;;;;5052197;28;20021;-84
2021/06/11 06:27:58;;;;;;;19.67;17.10;;;14.10;99.90;;;;;;5052090;28;20124;-84
2021/06/11 06:30:24;;;;;;;17.65;15.88;;;14.10;99.90;;;;;;5054752;28;20025;-84
2021/06/11 06:32:53;;;;;;;21.67;17.15;;;14.20;99.90;;;;;;5038931;28;20025;-84
2021/06/11 06:35:19;;;;;;;20.30;17.42;;;14.30;99.90;;;;;;5056277;28;20100;-85
2021/06/11 06:37:45;;;;;;;17.88;16.05;;;14.40;99.90;;;;;;5038695;28;20036;-85
2021/06/11 06:40:11;;;;;;;20.65;17.95;;;14.60;99.90;;;;;;5057318;28;20048;-85
2021/06/11 06:42:37;;;;;;;17.10;15.50;;;14.60;99.90;;;;;;5075052;28;20028;-84
2021/06/11 06:45:08;;;;;;;17.75;16.05;;;14.70;99.90;;;;;;5076192;28;20132;-86
2021/06/11 06:47:34;;;;;;;18.35;16.65;;;14.70;99.90;;;;;;5061640;28;20017;-83
2021/06/11 06:50:00;;;;;;;20.45;18.40;;;14.80;99.90;;;;;;5076185;28;20462;-84
2021/06/11 06:52:26;;;;;;;18.50;16.65;;;14.90;99.90;;;;;;5075770;28;20095;-85
2021/06/11 06:54:52;;;;;;;17.38;15.77;;;15.00;99.80;;;;;;5057398;28;20478;-83
2021/06/11 06:57:18;;;;;;;19.38;17.40;;;15.00;99.40;;;;;;5075348;28;20543;-82
2021/06/11 06:59:44;;;;;;;19.83;17.90;;;15.00;99.20;;;;;;5075324;28;20024;-84
2021/06/11 07:02:10;;;;;;;20.98;18.95;;;15.00;99.30;;;;;;5074991;28;20027;-82
2021/06/11 07:04:36;;;;;;;22.30;20.13;;;15.00;99.30;;;;;;5075364;28;20021;-84
2021/06/11 07:07:02;;;;;;;22.52;20.15;;;15.00;99.30;;;;;;5058326;28;20039;-85
2021/06/11 07:09:28;;;;;;;17.90;16.23;;;14.90;99.20;;;;;;5075273;28;20059;-84
2021/06/11 07:11:54;;;;;;;22.73;17.60;;;14.80;99.10;;;;;;5075177;28;20052;-84
2021/06/11 07:14:23;;;;;;;21.30;19.10;;;14.80;99.40;;;;;;5075512;28;20478;-84
2021/06/11 07:16:48;;;;;;;21.35;19.02;;;14.90;99.70;;;;;;5075439;28;20023;-85
2021/06/11 07:19:15;;;;;;;20.83;18.73;;;14.90;99.40;;;;;;5075869;28;20021;-85
2021/06/11 07:21:40;;;;;;;20.23;18.20;;;14.90;99.00;;;;;;5076650;28;20020;-83
2021/06/11 07:24:07;;;;;;;21.35;19.17;;;15.00;99.10;;;;;;5075959;28;20032;-82
2021/06/11 07:26:33;;;;;;;21.00;18.90;;;15.00;98.90;;;;;;5088764;28;20029;-85
2021/06/11 07:28:59;;;;;;;20.58;18.42;;;15.00;99.00;;;;;;5094752;28;20091;-82
2021/06/11 07:31:26;;;;;;;21.98;19.75;;;14.90;99.30;;;;;;5091700;28;20025;-83
2021/06/11 07:33:52;;;;;;;24.80;20.87;;;15.00;99.50;;;;;;5057821;28;20456;-85
2021/06/11 07:36:17;;;;;;;22.98;20.63;;;15.10;99.40;;;;;;5075463;28;20060;-84
2021/06/11 07:38:43;;;;;;;20.05;17.98;;;15.20;99.30;;;;;;5073770;28;20532;-86
2021/06/11 07:41:09;;;;;;;23.02;20.73;;;15.20;99.60;;;;;;5061638;28;20020;-86
2021/06/11 07:43:35;;;;;;;22.27;20.00;;;15.40;99.80;;;;;;5075048;28;20123;-83
2021/06/11 07:46:06;;;;;;;20.55;18.35;;;15.60;99.60;;;;;;5075105;28;20122;-84
2021/06/11 07:48:32;;;;;;;23.08;20.70;;;15.60;98.70;;;;;;5075043;28;20020;-85
2021/06/11 07:50:58;;;;;;;18.05;15.20;;;15.70;99.00;;;;;;5074621;28;20353;-84
2021/06/11 07:53:24;;;;;;;16.15;14.43;;;15.70;98.90;;;;;;5056350;28;20029;-84
2021/06/11 07:55:51;;;;;;;15.00;13.68;;;15.60;98.40;;;;;;5074013;28;20499;-83
2021/06/11 07:58:18;;;;;;;13.38;11.98;;;15.60;98.30;;;;;;5056695;28;20024;-85
2021/06/11 08:00:43;;;;;;;14.27;12.90;;;15.60;98.10;;;;;;5074354;28;20464;-85
2021/06/11 08:03:10;;;;;;;16.05;11.93;;;15.50;98.30;;;;;;5042131;28;20052;-83
2021/06/11 08:05:39;;;;;;;13.65;12.27;;;15.50;98.50;;;;;;5074922;28;20044;-84
2021/06/11 08:08:05;;;;;;;14.18;11.13;;;15.50;98.40;;;;;;5074729;28;20385;-82
2021/06/11 08:10:31;;;;;;;13.70;11.98;;;15.30;98.40;;;;;;5074359;28;20029;-84
2021/06/11 08:12:57;;;;;;;13.50;12.15;;;15.20;99.10;;;;;;5074035;28;20086;-86
2021/06/11 08:15:23;;;;;;;13.40;12.18;;;15.20;99.60;;;;;;5077626;28;20080;-83
2021/06/11 08:17:49;;;;;;;12.90;11.68;;;15.30;99.20;;;;;;5056375;28;20028;-82
2021/06/11 08:20:15;;;;;;;14.32;13.02;;;15.30;98.80;;;;;;5081324;28;20146;-85
2021/06/11 08:22:44;;;;;;;15.20;13.68;;;15.30;99.00;;;;;;5081224;28;20126;-83
2021/06/11 08:25:13;;;;;;;14.55;13.15;;;15.30;98.80;;;;;;5073567;28;20020;-82
2021/06/11 08:27:41;;;;;;;16.67;13.80;;;15.20;98.90;;;;;;5074046;28;20055;-84
2021/06/11 08:30:09;;;;;;;15.93;14.32;;;15.20;98.50;;;;;;5073926;28;20028;-83
2021/06/11 08:32:36;;;;;;;17.42;15.70;;;15.30;98.60;;;;;;5074815;28;20036;-85
2021/06/11 08:35:03;;;;;;;16.45;14.75;;;15.30;98.60;;;;;;5055219;28;20477;-83
2021/06/11 08:37:32;;;;;;;18.77;17.07;;;15.50;98.40;;;;;;5061646;28;20028;-85
2021/06/11 08:39:58;;;;;;;17.77;15.90;;;15.50;98.30;;;;;;5055326;28;20335;-84
2021/06/11 08:42:30;;;;;;;17.92;15.23;;;15.60;98.00;;;;;;5073061;28;20020;-83
2021/06/11 08:44:57;;;;;;;17.73;15.55;;;15.50;98.00;;;;;;5055293;28;20055;-86
2021/06/11 08:47:25;;;;;;;;;;;15.50;98.20;;;;;;5059744;28;20030;-83
2021/06/11 08:49:51;;;;;;;15.73;14.18;;;15.40;97.90;;;;;;5082195;28;19903;-84
2021/06/11 08:52:16;;;;;;;17.42;15.68;;;15.20;98.00;;;;;;5079352;28;20119;-83
2021/06/11 08:54:43;;;;;;;18.58;16.58;;;15.20;98.30;;;;;;5074412;28;20066;-85
2021/06/11 08:57:11;;;;;;;21.05;17.00;;;15.10;98.70;;;;;;5073275;28;20389;-85
2021/06/11 08:59:38;;;;;;;20.67;18.58;;;15.10;98.60;;;;;;5055814;28;20048;-84
2021/06/11 09:02:05;;;;;;;20.05;17.90;;;15.10;98.70;;;;;;5073708;28;20046;-82
2021/06/11 09:04:42;;;;;;;19.67;17.52;;;15.10;98.70;;;;;;5074924;28;20115;-83
2021/06/11 09:07:28;;;;;;;18.30;16.40;;;15.00;98.80;;;;;;5055320;28;20027;-85
2021/06/11 09:10:00;;;;;;;17.77;15.98;;;15.00;98.90;;;;;;5073543;28;20016;-86
2021/06/11 09:12:35;;;;;;;20.95;17.02;;;14.90;99.20;;;;;;5073386;28;20028;-82
2021/06/11 09:15:10;;;;;;;20.42;18.42;;;14.90;99.10;;;;;;5086953;28;20447;-84
2021/06/11 09:17:42;;;;;;;20.08;17.98;;;14.90;99.30;;;;;;5073072;28;20051;-84
2021/06/11 09:20:13;;;;;;;22.08;18.27;;;14.90;99.20;;;;;;5073141;28;20025;-84
2021/06/11 09:23:02;;;;;;;20.02;17.95;;;15.00;99.10;;;;;;5072678;28;20052;-84
2021/06/11 09:25:28;;;;;;;18.45;16.55;;;15.00;98.90;;;;;;5055690;28;20420;-84
2021/06/11 09:27:57;;;;;;;20.08;17.88;;;15.00;98.80;;;;;;5073423;28;20028;-86
2021/06/11 09:30:30;;;;;;;24.75;18.50;;;15.10;98.70;;;;;;5073997;28;20491;-82
2021/06/11 09:33:01;;;;;;;22.95;19.17;;;15.20;98.60;;;;;;5077506;28;20029;-83
2021/06/11 09:35:31;;;;;;;21.77;19.38;;;15.30;98.50;;;;;;5064787;28;20016;-85
2021/06/11 09:38:30;;;;;;;25.88;20.20;;;15.50;98.30;;;;;;5089689;28;20076;-83
2021/06/11 09:40:58;;;;;;;20.48;15.48;;;15.70;97.90;;;;;;5050797;28;20051;-83
2021/06/11 09:43:26;;;;;;;20.48;15.52;;;15.90;97.60;;;;;;5074727;28;20086;-82
2021/06/11 09:46:10;;;;;;;14.70;13.20;;;15.90;97.00;;;;;;5073605;28;20378;-84
2021/06/11 09:48:50;;;;;;;15.05;12.73;;;15.90;96.70;;;;;;5055015;28;20029;-84
2021/06/11 09:51:24;;;;;;;17.85;15.98;;;15.90;96.90;;;;;;5075218;28;20016;-84
2021/06/11 09:53:54;;;;;;;16.98;15.25;;;15.90;96.70;;;;;;5054608;28;20064;-83
2021/06/11 09:56:25;;;;;;;17.58;15.82;;;15.90;96.60;;;;;;5072163;28;20482;-83
2021/06/11 09:58:51;;;;;;;16.02;14.35;;;16.00;96.70;;;;;;5072375;28;20021;-84
2021/06/11 10:01:19;;;;;;;17.53;15.50;;;16.00;96.50;;;;;;5053628;28;20510;-84
2021/06/11 10:03:48;;;;;;;19.40;16.42;;;16.00;96.60;;;;;;5072587;28;20397;-84
2021/06/11 10:06:19;;;;;;;21.63;17.23;;;16.10;96.60;;;;;;5076175;28;20016;-84
2021/06/11 10:08:51;;;;;;;24.65;19.77;;;16.20;96.50;;;;;;5076586;28;20024;-83
2021/06/11 10:11:25;;;;;;;20.88;18.00;;;16.40;96.50;;;;;;5076214;28;20028;-83
2021/06/11 10:13:53;;;;;;;21.73;17.75;;;16.50;96.40;;;;;;5057850;28;20028;-84
2021/06/11 10:16:19;;;;;;;26.98;18.85;;;16.50;96.10;;;;;;5057820;28;20555;-84
2021/06/11 10:18:46;;;;;;;25.45;21.73;;;16.60;96.00;;;;;;5076374;28;20084;-84
2021/06/11 10:21:13;;;;;;;21.88;19.15;;;16.60;95.80;;;;;;5075965;28;20012;-86
2021/06/11 10:23:40;;;;;;;24.87;18.93;;;16.60;95.80;;;;;;5076694;28;20036;-85
2021/06/11 10:26:08;;;;;;;24.00;21.45;;;16.50;96.00;;;;;;5076525;28;20265;-85
2021/06/11 10:28:41;;;;;;;22.58;19.35;;;16.50;96.20;;;;;;5077454;28;20020;-85
2021/06/11 10:31:15;;;;;;;27.13;22.27;;;16.50;95.90;;;;;;5076128;28;20028;-83
2021/06/11 10:33:44;;;;;;;26.73;23.17;;;16.60;96.20;;;;;;5076524;28;20024;-84
2021/06/11 10:36:25;;;;;;;21.17;18.67;;;16.60;96.20;;;;;;5076871;28;20428;-83
2021/06/11 10:38:53;;;;;;;30.15;24.83;;;16.60;96.10;;;;;;5057378;28;20517;-85
2021/06/11 10:41:19;;;;;;;29.73;21.83;;;16.50;96.50;;;;;;5075156;28;20028;-84
2021/06/11 10:43:45;;;;;;;33.38;25.90;;;16.50;96.60;;;;;;5075916;28;20036;-83
2021/06/11 10:46:31;;;;;;;24.35;21.23;;;16.50;96.70;;;;;;5075988;28;20043;-84
2021/06/11 10:48:57;;;;;;;26.45;23.65;;;16.50;96.60;;;;;;5058062;28;20029;-83
2021/06/11 10:51:37;;;;;;;28.08;23.58;;;16.50;96.70;;;;;;5060811;28;20021;-85
2021/06/11 10:54:16;;;;;;;29.52;23.92;;;16.50;96.70;;;;;;5076095;28;20031;-84
2021/06/11 10:56:57;;;;;;;30.80;25.63;;;16.50;96.80;;;;;;5078263;28;20024;-85
2021/06/11 10:59:37;;;;;;;27.73;24.92;;;16.60;96.90;;;;;;5076364;28;20028;-84
2021/06/11 11:02:04;;;;;;;30.50;23.85;;;16.60;96.80;;;;;;5075365;28;20028;-85
2021/06/11 11:04:33;;;;;;;31.42;26.17;;;16.60;96.80;;;;;;5075970;28;20025;-83
2021/06/11 11:07:20;;;;;;;27.83;23.98;;;16.70;97.00;;;;;;5077208;28;20102;-84
2021/06/11 11:10:05;;;;;;;26.95;24.15;;;16.70;97.00;;;;;;5078324;28;20482;-84
2021/06/11 11:13:04;;;;;;;27.10;23.42;;;16.80;97.00;;;;;;5079028;28;20065;-84
2021/06/11 11:15:44;;;;;;;27.75;23.98;;;16.80;96.90;;;;;;5066673;28;20472;-82
2021/06/11 11:18:13;;;;;;;27.27;23.05;;;16.80;97.00;;;;;;5077413;28;20039;-84
2021/06/11 11:20:41;;;;;;;24.85;22.23;;;16.80;97.00;;;;;;5076969;28;20083;-85
2021/06/11 11:23:19;;;;;;;34.55;28.08;;;16.80;97.00;;;;;;5075916;28;20036;-81
2021/06/11 11:25:47;;;;;;;24.35;21.35;;;16.90;97.00;;;;;;5075122;28;20024;-84
2021/06/11 11:28:14;;;;;;;26.20;21.90;;;16.90;96.80;;;;;;5072854;28;20103;-84
2021/06/11 11:30:42;;;;;;;26.25;22.63;;;16.90;96.60;;;;;;5063547;28;20016;-84
2021/06/11 11:33:11;;;;;;;32.55;24.17;;;16.90;96.50;;;;;;5061131;28;20047;-84
2021/06/11 11:35:40;;;;;;;28.85;25.65;;;16.90;96.50;;;;;;5075257;28;20023;-84
2021/06/11 11:38:08;;;;;;;31.95;24.85;;;16.90;96.70;;;;;;5075090;28;20112;-85
2021/06/11 11:40:35;;;;;;;33.83;26.45;;;17.00;96.70;;;;;;5076515;28;20044;-84
2021/06/11 11:43:01;;;;;;;;;;;17.10;96.60;;;;;;5086762;28;20036;-84
2021/06/11 11:45:29;;;;;;;31.50;26.95;;;17.20;96.50;;;;;;5092052;28;19905;-84
2021/06/11 11:47:56;;;;;;;;;;;17.30;96.30;;;;;;5087219;28;20026;-83
2021/06/11 11:50:23;;;;;;;33.97;28.88;;;17.40;96.30;;;;;;5075090;28;19905;-84
2021/06/11 11:52:49;;;;;;;35.30;28.20;;;17.30;96.10;;;;;;5075376;28;20067;-86
2021/06/11 11:55:16;;;;;;;32.70;27.92;;;17.30;96.00;;;;;;5074823;28;20041;-83
2021/06/11 11:57:42;;;;;;;33.30;27.90;;;17.40;96.10;;;;;;5074802;28;20028;-83
2021/06/11 12:00:10;;;;;;;31.58;25.27;;;17.50;95.70;;;;;;5074496;28;20097;-84
2021/06/11 12:02:36;;;;;;;28.55;25.23;;;17.50;95.50;;;;;;5073631;28;20040;-84
2021/06/11 12:05:03;;;;;;;32.35;25.35;;;17.50;95.50;;;;;;5074458;28;20017;-84
2021/06/11 12:07:29;;;;;;;34.70;25.48;;;17.60;95.30;;;;;;5074422;28;20028;-83
2021/06/11 12:09:56;;;;;;;32.20;26.25;;;17.70;95.40;;;;;;5073882;28;20032;-83
2021/06/11 12:12:22;;;;;;;34.87;24.70;;;17.80;95.40;;;;;;5073757;28;20112;-83
2021/06/11 12:14:48;;;;;;;30.33;24.77;;;17.90;95.00;;;;;;5055675;28;20048;-84
2021/06/11 12:17:14;;;;;;;27.50;23.75;;;17.90;94.70;;;;;;5073935;28;20028;-84
2021/06/11 12:19:40;;;;;;;25.90;23.17;;;18.00;94.50;;;;;;5055978;28;20379;-84
2021/06/11 12:22:06;;;;;;;25.50;22.70;;;18.00;94.20;;;;;;5074001;28;20112;-84
2021/06/11 12:24:32;;;;;;;36.28;25.10;;;18.00;94.30;;;;;;5073645;28;20032;-85
2021/06/11 12:26:58;;;;;;;29.80;24.10;;;18.00;94.30;;;;;;5054728;28;20037;-84
2021/06/11 12:29:24;;;;;;;26.77;23.85;;;18.10;94.40;;;;;;5074023;28;20034;-84
2021/06/11 12:31:51;;;;;;;26.77;22.77;;;18.10;94.20;;;;;;5073079;28;20020;-85
2021/06/11 12:34:17;;;;;;;;;;;18.20;94.00;;;;;;5074628;28;20043;-84
2021/06/11 12:36:44;;;;;;;27.02;22.38;;;18.20;94.00;;;;;;5060072;28;20405;-83
2021/06/11 12:39:10;;;;;;;30.70;24.33;;;18.10;94.10;;;;;;5074149;28;20049;-83
2021/06/11 12:41:38;;;;;;;28.47;24.33;;;18.20;94.10;;;;;;5074543;28;20039;-84
2021/06/11 12:44:20;;;;;;;;;;;18.30;93.80;;;;;;5074197;28;20044;-84